sensor_id;sensor_type;location;lat;lon;timestamp;P1;durP1;ratioP1;P2;durP2;ratioP2
30398;SDS011;17195;50.838;7.214;2023-11-21T00:00:00;8.05;;;4.38;;
30398;SDS011;17195;50.838;7.214;2023-11-21T00:02:25;6.38;;;4.10;;
30398;SDS011;17195;50.838;7.214;2023-11-21T00:04:52;7.25;;;3.95;;
30398;SDS011;17195;50.838;7.214;2023-11-21T00:07:17;5.95;;;3.92;;
30398;SDS011;17195;50.838;7.214;2023-11-21T00:09:43;11.48;;;4.20;;
30398;SDS011;17195;50.838;7.214;2023-11-21T00:12:09;10.10;;;4.32;;
30398;SDS011;17195;50.838;7.214;2023-11-21T00:14:35;7.93;;;4.28;;
30398;SDS011;17195;50.838;7.214;2023-11-21T00:17:02;7.53;;;4.53;;
30398;SDS011;17195;50.838;7.214;2023-11-21T00:19:27;8.73;;;4.82;;
30398;SDS011;17195;50.838;7.214;2023-11-21T00:21:53;6.88;;;4.68;;
30398;SDS011;17195;50.838;7.214;2023-11-21T00:24:18;7.97;;;5.03;;
30398;SDS011;17195;50.838;7.214;2023-11-21T00:26:44;10.48;;;4.88;;
30398;SDS011;17195;50.838;7.214;2023-11-21T00:29:10;8.02;;;4.60;;
30398;SDS011;17195;50.838;7.214;2023-11-21T00:31:35;7.57;;;4.82;;
30398;SDS011;17195;50.838;7.214;2023-11-21T00:34:02;7.22;;;5.05;;
30398;SDS011;17195;50.838;7.214;2023-11-21T00:36:30;8.45;;;5.25;;
30398;SDS011;17195;50.838;7.214;2023-11-21T00:38:56;9.57;;;5.85;;
30398;SDS011;17195;50.838;7.214;2023-11-21T00:41:22;11.00;;;6.03;;
30398;SDS011;17195;50.838;7.214;2023-11-21T00:43:47;10.63;;;6.35;;
30398;SDS011;17195;50.838;7.214;2023-11-21T00:46:13;8.20;;;5.40;;
30398;SDS011;17195;50.838;7.214;2023-11-21T00:48:38;12.30;;;6.50;;
30398;SDS011;17195;50.838;7.214;2023-11-21T00:51:04;10.30;;;6.95;;
30398;SDS011;17195;50.838;7.214;2023-11-21T00:53:31;10.73;;;7.10;;
30398;SDS011;17195;50.838;7.214;2023-11-21T00:55:56;9.57;;;6.38;;
30398;SDS011;17195;50.838;7.214;2023-11-21T00:58:25;9.40;;;6.28;;
30398;SDS011;17195;50.838;7.214;2023-11-21T01:00:51;12.18;;;7.10;;
30398;SDS011;17195;50.838;7.214;2023-11-21T01:03:17;13.55;;;7.70;;
30398;SDS011;17195;50.838;7.214;2023-11-21T01:05:43;10.70;;;7.68;;
30398;SDS011;17195;50.838;7.214;2023-11-21T01:08:09;15.27;;;7.97;;
30398;SDS011;17195;50.838;7.214;2023-11-21T01:10:35;15.73;;;8.57;;
30398;SDS011;17195;50.838;7.214;2023-11-21T01:13:01;11.05;;;7.57;;
30398;SDS011;17195;50.838;7.214;2023-11-21T01:15:26;11.20;;;7.53;;
30398;SDS011;17195;50.838;7.214;2023-11-21T01:17:52;13.75;;;7.85;;
30398;SDS011;17195;50.838;7.214;2023-11-21T01:20:18;12.00;;;7.88;;
30398;SDS011;17195;50.838;7.214;2023-11-21T01:22:43;9.95;;;7.43;;
30398;SDS011;17195;50.838;7.214;2023-11-21T01:25:09;12.35;;;7.68;;
30398;SDS011;17195;50.838;7.214;2023-11-21T01:27:35;14.05;;;7.75;;
30398;SDS011;17195;50.838;7.214;2023-11-21T01:30:04;14.32;;;7.65;;
30398;SDS011;17195;50.838;7.214;2023-11-21T01:32:32;13.70;;;8.75;;
30398;SDS011;17195;50.838;7.214;2023-11-21T01:34:59;12.68;;;7.72;;
30398;SDS011;17195;50.838;7.214;2023-11-21T01:37:25;10.48;;;7.60;;
30398;SDS011;17195;50.838;7.214;2023-11-21T01:39:52;16.17;;;7.75;;
30398;SDS011;17195;50.838;7.214;2023-11-21T01:42:19;12.88;;;8.02;;
30398;SDS011;17195;50.838;7.214;2023-11-21T01:44:45;10.20;;;7.00;;
30398;SDS011;17195;50.838;7.214;2023-11-21T01:47:11;12.88;;;8.10;;
30398;SDS011;17195;50.838;7.214;2023-11-21T01:49:38;10.73;;;7.55;;
30398;SDS011;17195;50.838;7.214;2023-11-21T01:52:04;12.48;;;7.03;;
30398;SDS011;17195;50.838;7.214;2023-11-21T01:54:30;11.10;;;6.78;;
30398;SDS011;17195;50.838;7.214;2023-11-21T01:56:57;13.57;;;6.32;;
30398;SDS011;17195;50.838;7.214;2023-11-21T01:59:27;10.43;;;7.07;;
30398;SDS011;17195;50.838;7.214;2023-11-21T02:01:59;10.18;;;6.68;;
30398;SDS011;17195;50.838;7.214;2023-11-21T02:04:25;10.68;;;7.32;;
30398;SDS011;17195;50.838;7.214;2023-11-21T02:06:51;9.00;;;6.72;;
30398;SDS011;17195;50.838;7.214;2023-11-21T02:09:16;9.20;;;6.15;;
30398;SDS011;17195;50.838;7.214;2023-11-21T02:11:42;7.57;;;6.10;;
30398;SDS011;17195;50.838;7.214;2023-11-21T02:14:09;9.45;;;5.60;;
30398;SDS011;17195;50.838;7.214;2023-11-21T02:16:34;11.40;;;6.40;;
30398;SDS011;17195;50.838;7.214;2023-11-21T02:19:01;12.38;;;6.38;;
30398;SDS011;17195;50.838;7.214;2023-11-21T02:21:29;10.63;;;6.55;;
30398;SDS011;17195;50.838;7.214;2023-11-21T02:23:55;9.85;;;6.28;;
30398;SDS011;17195;50.838;7.214;2023-11-21T02:26:21;10.30;;;6.40;;
30398;SDS011;17195;50.838;7.214;2023-11-21T02:28:47;9.27;;;6.75;;
30398;SDS011;17195;50.838;7.214;2023-11-21T02:31:12;12.70;;;7.00;;
30398;SDS011;17195;50.838;7.214;2023-11-21T02:33:38;12.18;;;6.78;;
30398;SDS011;17195;50.838;7.214;2023-11-21T02:36:04;12.90;;;6.68;;
30398;SDS011;17195;50.838;7.214;2023-11-21T02:38:30;9.70;;;7.18;;
30398;SDS011;17195;50.838;7.214;2023-11-21T02:40:57;14.77;;;7.18;;
30398;SDS011;17195;50.838;7.214;2023-11-21T02:43:23;10.07;;;6.07;;
30398;SDS011;17195;50.838;7.214;2023-11-21T02:45:48;12.00;;;7.15;;
30398;SDS011;17195;50.838;7.214;2023-11-21T02:48:14;13.15;;;7.53;;
30398;SDS011;17195;50.838;7.214;2023-11-21T02:50:39;13.10;;;7.95;;
30398;SDS011;17195;50.838;7.214;2023-11-21T02:53:05;12.90;;;7.32;;
30398;SDS011;17195;50.838;7.214;2023-11-21T02:55:31;14.52;;;7.60;;
30398;SDS011;17195;50.838;7.214;2023-11-21T02:57:59;13.05;;;7.57;;
30398;SDS011;17195;50.838;7.214;2023-11-21T03:00:25;13.93;;;8.07;;
30398;SDS011;17195;50.838;7.214;2023-11-21T03:02:51;14.57;;;7.88;;
30398;SDS011;17195;50.838;7.214;2023-11-21T03:05:16;12.40;;;6.72;;
30398;SDS011;17195;50.838;7.214;2023-11-21T03:07:42;9.60;;;6.13;;
30398;SDS011;17195;50.838;7.214;2023-11-21T03:10:08;11.55;;;6.53;;
30398;SDS011;17195;50.838;7.214;2023-11-21T03:12:34;7.65;;;5.05;;
30398;SDS011;17195;50.838;7.214;2023-11-21T03:15:00;12.85;;;5.75;;
30398;SDS011;17195;50.838;7.214;2023-11-21T03:17:26;7.10;;;4.78;;
30398;SDS011;17195;50.838;7.214;2023-11-21T03:19:53;11.25;;;5.60;;
30398;SDS011;17195;50.838;7.214;2023-11-21T03:22:19;10.30;;;5.47;;
30398;SDS011;17195;50.838;7.214;2023-11-21T03:24:45;10.32;;;5.40;;
30398;SDS011;17195;50.838;7.214;2023-11-21T03:27:11;11.18;;;5.75;;
30398;SDS011;17195;50.838;7.214;2023-11-21T03:29:37;12.70;;;6.63;;
30398;SDS011;17195;50.838;7.214;2023-11-21T03:32:02;13.70;;;6.90;;
30398;SDS011;17195;50.838;7.214;2023-11-21T03:34:28;14.00;;;7.32;;
30398;SDS011;17195;50.838;7.214;2023-11-21T03:36:54;11.60;;;7.13;;
30398;SDS011;17195;50.838;7.214;2023-11-21T03:39:20;11.32;;;7.22;;
30398;SDS011;17195;50.838;7.214;2023-11-21T03:41:46;11.60;;;7.20;;
30398;SDS011;17195;50.838;7.214;2023-11-21T03:44:11;12.45;;;6.57;;
30398;SDS011;17195;50.838;7.214;2023-11-21T03:46:37;12.30;;;7.25;;
30398;SDS011;17195;50.838;7.214;2023-11-21T03:49:03;11.25;;;6.95;;
30398;SDS011;17195;50.838;7.214;2023-11-21T03:51:29;10.57;;;6.70;;
30398;SDS011;17195;50.838;7.214;2023-11-21T03:53:54;11.20;;;6.85;;
30398;SDS011;17195;50.838;7.214;2023-11-21T03:56:20;8.95;;;6.07;;
30398;SDS011;17195;50.838;7.214;2023-11-21T03:58:47;10.25;;;7.18;;
30398;SDS011;17195;50.838;7.214;2023-11-21T04:01:18;9.07;;;7.10;;
30398;SDS011;17195;50.838;7.214;2023-11-21T04:03:48;10.13;;;7.07;;
30398;SDS011;17195;50.838;7.214;2023-11-21T04:06:14;12.85;;;7.60;;
30398;SDS011;17195;50.838;7.214;2023-11-21T04:08:42;17.27;;;7.43;;
30398;SDS011;17195;50.838;7.214;2023-11-21T04:11:09;12.50;;;7.97;;
30398;SDS011;17195;50.838;7.214;2023-11-21T04:13:36;10.82;;;7.05;;
30398;SDS011;17195;50.838;7.214;2023-11-21T04:16:03;12.30;;;7.80;;
30398;SDS011;17195;50.838;7.214;2023-11-21T04:18:30;12.40;;;8.38;;
30398;SDS011;17195;50.838;7.214;2023-11-21T04:20:55;11.85;;;8.05;;
30398;SDS011;17195;50.838;7.214;2023-11-21T04:23:21;15.05;;;8.35;;
30398;SDS011;17195;50.838;7.214;2023-11-21T04:25:46;13.52;;;7.90;;
30398;SDS011;17195;50.838;7.214;2023-11-21T04:28:12;12.88;;;7.68;;
30398;SDS011;17195;50.838;7.214;2023-11-21T04:30:38;16.17;;;8.45;;
30398;SDS011;17195;50.838;7.214;2023-11-21T04:33:04;18.05;;;8.05;;
30398;SDS011;17195;50.838;7.214;2023-11-21T04:35:30;13.48;;;8.32;;
30398;SDS011;17195;50.838;7.214;2023-11-21T04:37:55;12.82;;;8.13;;
30398;SDS011;17195;50.838;7.214;2023-11-21T04:40:22;16.55;;;9.23;;
30398;SDS011;17195;50.838;7.214;2023-11-21T04:42:48;15.95;;;8.00;;
30398;SDS011;17195;50.838;7.214;2023-11-21T04:45:13;14.27;;;8.73;;
30398;SDS011;17195;50.838;7.214;2023-11-21T04:47:39;12.00;;;8.02;;
30398;SDS011;17195;50.838;7.214;2023-11-21T04:50:04;12.00;;;8.35;;
30398;SDS011;17195;50.838;7.214;2023-11-21T04:52:31;12.60;;;7.72;;
30398;SDS011;17195;50.838;7.214;2023-11-21T04:54:58;9.98;;;7.25;;
30398;SDS011;17195;50.838;7.214;2023-11-21T04:57:24;12.57;;;6.57;;
30398;SDS011;17195;50.838;7.214;2023-11-21T04:59:49;9.40;;;7.15;;
30398;SDS011;17195;50.838;7.214;2023-11-21T05:02:15;8.48;;;6.00;;
30398;SDS011;17195;50.838;7.214;2023-11-21T05:04:41;12.05;;;5.85;;
30398;SDS011;17195;50.838;7.214;2023-11-21T05:07:07;14.65;;;7.10;;
30398;SDS011;17195;50.838;7.214;2023-11-21T05:09:33;8.57;;;5.90;;
30398;SDS011;17195;50.838;7.214;2023-11-21T05:11:59;12.43;;;6.40;;
30398;SDS011;17195;50.838;7.214;2023-11-21T05:14:25;15.15;;;8.93;;
30398;SDS011;17195;50.838;7.214;2023-11-21T05:16:50;15.45;;;8.57;;
30398;SDS011;17195;50.838;7.214;2023-11-21T05:19:16;14.13;;;8.57;;
30398;SDS011;17195;50.838;7.214;2023-11-21T05:21:42;12.32;;;8.15;;
30398;SDS011;17195;50.838;7.214;2023-11-21T05:24:08;12.02;;;8.38;;
30398;SDS011;17195;50.838;7.214;2023-11-21T05:26:34;14.15;;;8.32;;
30398;SDS011;17195;50.838;7.214;2023-11-21T05:29:00;13.77;;;8.23;;
30398;SDS011;17195;50.838;7.214;2023-11-21T05:31:25;12.27;;;8.38;;
30398;SDS011;17195;50.838;7.214;2023-11-21T05:33:52;12.60;;;7.65;;
30398;SDS011;17195;50.838;7.214;2023-11-21T05:36:18;12.82;;;8.32;;
30398;SDS011;17195;50.838;7.214;2023-11-21T05:38:43;18.73;;;10.13;;
30398;SDS011;17195;50.838;7.214;2023-11-21T05:41:09;17.52;;;9.40;;
30398;SDS011;17195;50.838;7.214;2023-11-21T05:43:38;15.60;;;9.45;;
30398;SDS011;17195;50.838;7.214;2023-11-21T05:46:04;18.38;;;10.13;;
30398;SDS011;17195;50.838;7.214;2023-11-21T05:48:32;17.05;;;10.25;;
30398;SDS011;17195;50.838;7.214;2023-11-21T05:50:57;16.95;;;9.88;;
30398;SDS011;17195;50.838;7.214;2023-11-21T05:53:24;16.42;;;10.45;;
30398;SDS011;17195;50.838;7.214;2023-11-21T05:55:49;16.17;;;10.05;;
30398;SDS011;17195;50.838;7.214;2023-11-21T05:58:15;21.60;;;10.85;;
30398;SDS011;17195;50.838;7.214;2023-11-21T06:00:40;17.30;;;9.05;;
30398;SDS011;17195;50.838;7.214;2023-11-21T06:03:06;14.57;;;9.50;;
30398;SDS011;17195;50.838;7.214;2023-11-21T06:05:33;17.63;;;9.10;;
30398;SDS011;17195;50.838;7.214;2023-11-21T06:07:58;17.40;;;8.90;;
30398;SDS011;17195;50.838;7.214;2023-11-21T06:10:24;14.75;;;9.63;;
30398;SDS011;17195;50.838;7.214;2023-11-21T06:12:49;17.98;;;10.65;;
30398;SDS011;17195;50.838;7.214;2023-11-21T06:15:15;15.98;;;10.23;;
30398;SDS011;17195;50.838;7.214;2023-11-21T06:17:44;18.23;;;11.98;;
30398;SDS011;17195;50.838;7.214;2023-11-21T06:20:10;23.55;;;12.48;;
30398;SDS011;17195;50.838;7.214;2023-11-21T06:22:39;20.70;;;10.85;;
30398;SDS011;17195;50.838;7.214;2023-11-21T06:25:06;14.30;;;10.23;;
30398;SDS011;17195;50.838;7.214;2023-11-21T06:27:33;16.98;;;10.10;;
30398;SDS011;17195;50.838;7.214;2023-11-21T06:30:01;12.75;;;8.93;;
30398;SDS011;17195;50.838;7.214;2023-11-21T06:32:27;14.63;;;9.50;;
30398;SDS011;17195;50.838;7.214;2023-11-21T06:34:54;17.27;;;9.40;;
30398;SDS011;17195;50.838;7.214;2023-11-21T06:37:20;19.13;;;10.95;;
30398;SDS011;17195;50.838;7.214;2023-11-21T06:39:48;15.38;;;9.40;;
30398;SDS011;17195;50.838;7.214;2023-11-21T06:42:14;18.83;;;10.23;;
30398;SDS011;17195;50.838;7.214;2023-11-21T06:44:40;16.50;;;9.57;;
30398;SDS011;17195;50.838;7.214;2023-11-21T06:47:06;14.93;;;9.43;;
30398;SDS011;17195;50.838;7.214;2023-11-21T06:49:32;15.38;;;9.25;;
30398;SDS011;17195;50.838;7.214;2023-11-21T06:51:58;20.52;;;10.15;;
30398;SDS011;17195;50.838;7.214;2023-11-21T06:54:24;18.00;;;10.35;;
30398;SDS011;17195;50.838;7.214;2023-11-21T06:56:51;17.98;;;9.88;;
30398;SDS011;17195;50.838;7.214;2023-11-21T06:59:18;18.98;;;10.35;;
30398;SDS011;17195;50.838;7.214;2023-11-21T07:01:43;17.13;;;10.38;;
30398;SDS011;17195;50.838;7.214;2023-11-21T07:04:09;15.80;;;10.00;;
30398;SDS011;17195;50.838;7.214;2023-11-21T07:06:35;18.38;;;11.20;;
30398;SDS011;17195;50.838;7.214;2023-11-21T07:09:01;16.70;;;10.65;;
30398;SDS011;17195;50.838;7.214;2023-11-21T07:11:28;15.70;;;10.00;;
30398;SDS011;17195;50.838;7.214;2023-11-21T07:13:53;17.67;;;10.13;;
30398;SDS011;17195;50.838;7.214;2023-11-21T07:16:19;17.52;;;10.70;;
30398;SDS011;17195;50.838;7.214;2023-11-21T07:18:44;18.65;;;10.80;;
30398;SDS011;17195;50.838;7.214;2023-11-21T07:21:10;16.38;;;10.48;;
30398;SDS011;17195;50.838;7.214;2023-11-21T07:23:37;16.85;;;10.70;;
30398;SDS011;17195;50.838;7.214;2023-11-21T07:26:03;17.83;;;9.88;;
30398;SDS011;17195;50.838;7.214;2023-11-21T07:28:33;17.52;;;9.68;;
30398;SDS011;17195;50.838;7.214;2023-11-21T07:30:59;15.63;;;9.05;;
30398;SDS011;17195;50.838;7.214;2023-11-21T07:33:25;21.38;;;9.80;;
30398;SDS011;17195;50.838;7.214;2023-11-21T07:35:50;17.98;;;10.75;;
30398;SDS011;17195;50.838;7.214;2023-11-21T07:38:16;24.67;;;11.55;;
30398;SDS011;17195;50.838;7.214;2023-11-21T07:40:42;17.70;;;10.85;;
30398;SDS011;17195;50.838;7.214;2023-11-21T07:43:08;17.30;;;11.23;;
30398;SDS011;17195;50.838;7.214;2023-11-21T07:45:35;22.77;;;11.90;;
30398;SDS011;17195;50.838;7.214;2023-11-21T07:48:01;21.20;;;12.15;;
30398;SDS011;17195;50.838;7.214;2023-11-21T07:50:28;21.50;;;11.20;;
30398;SDS011;17195;50.838;7.214;2023-11-21T07:52:54;19.65;;;10.25;;
30398;SDS011;17195;50.838;7.214;2023-11-21T07:55:20;15.38;;;10.25;;
30398;SDS011;17195;50.838;7.214;2023-11-21T07:57:45;21.42;;;12.30;;
30398;SDS011;17195;50.838;7.214;2023-11-21T08:00:11;20.90;;;12.52;;
30398;SDS011;17195;50.838;7.214;2023-11-21T08:02:37;21.67;;;11.90;;
30398;SDS011;17195;50.838;7.214;2023-11-21T08:05:11;23.90;;;13.13;;
30398;SDS011;17195;50.838;7.214;2023-11-21T08:07:37;21.60;;;12.75;;
30398;SDS011;17195;50.838;7.214;2023-11-21T08:10:03;27.95;;;14.32;;
30398;SDS011;17195;50.838;7.214;2023-11-21T08:12:30;28.80;;;13.93;;
30398;SDS011;17195;50.838;7.214;2023-11-21T08:14:55;22.55;;;13.45;;
30398;SDS011;17195;50.838;7.214;2023-11-21T08:17:21;22.10;;;13.07;;
30398;SDS011;17195;50.838;7.214;2023-11-21T08:19:47;25.50;;;13.23;;
30398;SDS011;17195;50.838;7.214;2023-11-21T08:22:15;22.52;;;12.73;;
30398;SDS011;17195;50.838;7.214;2023-11-21T08:24:43;30.58;;;13.90;;
30398;SDS011;17195;50.838;7.214;2023-11-21T08:27:09;26.85;;;14.65;;
30398;SDS011;17195;50.838;7.214;2023-11-21T08:29:35;38.28;;;17.67;;
30398;SDS011;17195;50.838;7.214;2023-11-21T08:32:01;34.58;;;17.27;;
30398;SDS011;17195;50.838;7.214;2023-11-21T08:34:27;35.60;;;18.20;;
30398;SDS011;17195;50.838;7.214;2023-11-21T08:36:53;38.53;;;18.20;;
30398;SDS011;17195;50.838;7.214;2023-11-21T08:39:20;40.88;;;17.70;;
30398;SDS011;17195;50.838;7.214;2023-11-21T08:41:49;37.92;;;19.05;;
30398;SDS011;17195;50.838;7.214;2023-11-21T08:44:15;42.25;;;19.40;;
30398;SDS011;17195;50.838;7.214;2023-11-21T08:46:43;40.80;;;20.52;;
30398;SDS011;17195;50.838;7.214;2023-11-21T08:49:10;36.78;;;17.60;;
30398;SDS011;17195;50.838;7.214;2023-11-21T08:51:40;38.63;;;20.23;;
30398;SDS011;17195;50.838;7.214;2023-11-21T08:54:06;43.30;;;20.98;;
30398;SDS011;17195;50.838;7.214;2023-11-21T08:56:33;49.65;;;22.30;;
30398;SDS011;17195;50.838;7.214;2023-11-21T08:58:59;47.13;;;21.48;;
30398;SDS011;17195;50.838;7.214;2023-11-21T09:01:27;44.90;;;22.33;;
30398;SDS011;17195;50.838;7.214;2023-11-21T09:03:53;45.67;;;22.98;;
30398;SDS011;17195;50.838;7.214;2023-11-21T09:06:18;45.83;;;22.33;;
30398;SDS011;17195;50.838;7.214;2023-11-21T09:08:44;46.30;;;22.02;;
30398;SDS011;17195;50.838;7.214;2023-11-21T09:11:10;41.13;;;21.77;;
30398;SDS011;17195;50.838;7.214;2023-11-21T09:13:35;44.42;;;22.48;;
30398;SDS011;17195;50.838;7.214;2023-11-21T09:16:01;44.97;;;22.45;;
30398;SDS011;17195;50.838;7.214;2023-11-21T09:18:27;46.63;;;22.83;;
30398;SDS011;17195;50.838;7.214;2023-11-21T09:20:52;43.00;;;21.38;;
30398;SDS011;17195;50.838;7.214;2023-11-21T09:23:18;52.25;;;23.50;;
30398;SDS011;17195;50.838;7.214;2023-11-21T09:25:43;50.40;;;23.40;;
30398;SDS011;17195;50.838;7.214;2023-11-21T09:28:11;50.92;;;23.67;;
30398;SDS011;17195;50.838;7.214;2023-11-21T09:30:37;50.17;;;23.30;;
30398;SDS011;17195;50.838;7.214;2023-11-21T09:33:03;44.40;;;23.95;;
30398;SDS011;17195;50.838;7.214;2023-11-21T09:35:32;44.40;;;24.10;;
30398;SDS011;17195;50.838;7.214;2023-11-21T09:37:57;49.55;;;25.52;;
30398;SDS011;17195;50.838;7.214;2023-11-21T09:40:23;45.85;;;25.33;;
30398;SDS011;17195;50.838;7.214;2023-11-21T09:42:53;51.05;;;25.63;;
30398;SDS011;17195;50.838;7.214;2023-11-21T09:45:25;52.10;;;25.70;;
30398;SDS011;17195;50.838;7.214;2023-11-21T09:47:53;51.88;;;26.98;;
30398;SDS011;17195;50.838;7.214;2023-11-21T09:50:20;52.78;;;25.27;;
30398;SDS011;17195;50.838;7.214;2023-11-21T09:55:31;44.45;;;22.77;;
30398;SDS011;17195;50.838;7.214;2023-11-21T09:58:01;47.15;;;23.00;;
30398;SDS011;17195;50.838;7.214;2023-11-21T10:00:28;45.10;;;23.30;;
30398;SDS011;17195;50.838;7.214;2023-11-21T10:02:58;46.40;;;23.83;;
30398;SDS011;17195;50.838;7.214;2023-11-21T10:05:24;42.15;;;24.13;;
30398;SDS011;17195;50.838;7.214;2023-11-21T10:07:50;45.95;;;24.48;;
30398;SDS011;17195;50.838;7.214;2023-11-21T10:10:18;44.65;;;24.40;;
30398;SDS011;17195;50.838;7.214;2023-11-21T10:12:55;42.97;;;23.80;;
30398;SDS011;17195;50.838;7.214;2023-11-21T10:15:22;46.78;;;24.80;;
30398;SDS011;17195;50.838;7.214;2023-11-21T10:17:50;48.60;;;25.23;;
30398;SDS011;17195;50.838;7.214;2023-11-21T10:20:18;46.20;;;24.80;;
30398;SDS011;17195;50.838;7.214;2023-11-21T10:22:44;49.55;;;24.85;;
30398;SDS011;17195;50.838;7.214;2023-11-21T10:25:10;55.42;;;26.77;;
30398;SDS011;17195;50.838;7.214;2023-11-21T10:27:39;43.53;;;24.02;;
30398;SDS011;17195;50.838;7.214;2023-11-21T10:30:09;51.92;;;24.95;;
30398;SDS011;17195;50.838;7.214;2023-11-21T10:32:38;45.35;;;25.75;;
30398;SDS011;17195;50.838;7.214;2023-11-21T10:35:06;47.88;;;26.85;;
30398;SDS011;17195;50.838;7.214;2023-11-21T10:37:35;45.38;;;25.25;;
30398;SDS011;17195;50.838;7.214;2023-11-21T10:40:04;50.10;;;25.30;;
30398;SDS011;17195;50.838;7.214;2023-11-21T10:42:32;44.65;;;24.48;;
30398;SDS011;17195;50.838;7.214;2023-11-21T10:44:57;48.38;;;25.23;;
30398;SDS011;17195;50.838;7.214;2023-11-21T10:47:23;46.38;;;25.05;;
30398;SDS011;17195;50.838;7.214;2023-11-21T10:49:49;51.63;;;26.70;;
30398;SDS011;17195;50.838;7.214;2023-11-21T10:52:15;42.88;;;23.50;;
30398;SDS011;17195;50.838;7.214;2023-11-21T10:54:42;40.42;;;22.77;;
30398;SDS011;17195;50.838;7.214;2023-11-21T10:57:11;45.38;;;24.75;;
30398;SDS011;17195;50.838;7.214;2023-11-21T10:59:42;44.95;;;24.00;;
30398;SDS011;17195;50.838;7.214;2023-11-21T11:02:22;41.05;;;23.67;;
30398;SDS011;17195;50.838;7.214;2023-11-21T11:04:52;43.05;;;22.70;;
30398;SDS011;17195;50.838;7.214;2023-11-21T11:07:18;41.50;;;22.40;;
30398;SDS011;17195;50.838;7.214;2023-11-21T11:09:50;40.95;;;21.70;;
30398;SDS011;17195;50.838;7.214;2023-11-21T11:12:17;38.97;;;22.90;;
30398;SDS011;17195;50.838;7.214;2023-11-21T11:14:44;51.35;;;24.58;;
30398;SDS011;17195;50.838;7.214;2023-11-21T11:17:10;43.10;;;22.48;;
30398;SDS011;17195;50.838;7.214;2023-11-21T11:19:36;50.22;;;23.58;;
30398;SDS011;17195;50.838;7.214;2023-11-21T11:27:55;48.70;;;23.98;;
30398;SDS011;17195;50.838;7.214;2023-11-21T11:36:31;47.83;;;25.48;;
30398;SDS011;17195;50.838;7.214;2023-11-21T11:38:59;42.80;;;22.83;;
30398;SDS011;17195;50.838;7.214;2023-11-21T11:41:35;46.75;;;24.08;;
30398;SDS011;17195;50.838;7.214;2023-11-21T11:44:01;52.20;;;23.85;;
30398;SDS011;17195;50.838;7.214;2023-11-21T11:46:40;42.67;;;21.60;;
30398;SDS011;17195;50.838;7.214;2023-11-21T11:49:07;44.50;;;22.77;;
30398;SDS011;17195;50.838;7.214;2023-11-21T11:51:33;43.38;;;21.08;;
30398;SDS011;17195;50.838;7.214;2023-11-21T11:54:00;45.90;;;22.48;;
30398;SDS011;17195;50.838;7.214;2023-11-21T11:56:33;43.92;;;22.55;;
30398;SDS011;17195;50.838;7.214;2023-11-21T11:59:00;39.35;;;21.60;;
30398;SDS011;17195;50.838;7.214;2023-11-21T12:01:29;38.05;;;21.65;;
30398;SDS011;17195;50.838;7.214;2023-11-21T12:06:48;37.00;;;21.42;;
30398;SDS011;17195;50.838;7.214;2023-11-21T12:09:17;40.92;;;23.20;;
30398;SDS011;17195;50.838;7.214;2023-11-21T12:11:44;42.88;;;21.58;;
30398;SDS011;17195;50.838;7.214;2023-11-21T12:14:11;39.22;;;22.02;;
30398;SDS011;17195;50.838;7.214;2023-11-21T12:16:38;43.63;;;22.48;;
30398;SDS011;17195;50.838;7.214;2023-11-21T12:19:04;39.67;;;22.65;;
30398;SDS011;17195;50.838;7.214;2023-11-21T12:21:30;39.58;;;22.73;;
30398;SDS011;17195;50.838;7.214;2023-11-21T12:23:57;41.83;;;22.42;;
30398;SDS011;17195;50.838;7.214;2023-11-21T12:26:26;45.17;;;22.77;;
30398;SDS011;17195;50.838;7.214;2023-11-21T12:28:52;46.90;;;24.48;;
30398;SDS011;17195;50.838;7.214;2023-11-21T12:31:22;49.50;;;24.77;;
30398;SDS011;17195;50.838;7.214;2023-11-21T12:33:48;46.58;;;23.58;;
30398;SDS011;17195;50.838;7.214;2023-11-21T12:36:13;42.55;;;22.73;;
30398;SDS011;17195;50.838;7.214;2023-11-21T12:38:40;44.83;;;23.55;;
30398;SDS011;17195;50.838;7.214;2023-11-21T12:41:07;46.83;;;24.27;;
30398;SDS011;17195;50.838;7.214;2023-11-21T12:43:33;46.28;;;23.27;;
30398;SDS011;17195;50.838;7.214;2023-11-21T12:46:09;39.85;;;21.27;;
30398;SDS011;17195;50.838;7.214;2023-11-21T12:48:39;43.83;;;23.52;;
30398;SDS011;17195;50.838;7.214;2023-11-21T12:51:09;46.22;;;22.38;;
30398;SDS011;17195;50.838;7.214;2023-11-21T12:53:36;43.38;;;22.30;;
30398;SDS011;17195;50.838;7.214;2023-11-21T12:56:06;42.17;;;21.63;;
30398;SDS011;17195;50.838;7.214;2023-11-21T12:58:35;45.92;;;22.67;;
30398;SDS011;17195;50.838;7.214;2023-11-21T13:01:01;39.33;;;21.45;;
30398;SDS011;17195;50.838;7.214;2023-11-21T13:03:29;45.03;;;22.95;;
30398;SDS011;17195;50.838;7.214;2023-11-21T13:05:55;42.58;;;22.85;;
30398;SDS011;17195;50.838;7.214;2023-11-21T13:08:22;43.42;;;21.92;;
30398;SDS011;17195;50.838;7.214;2023-11-21T13:10:49;44.88;;;21.88;;
30398;SDS011;17195;50.838;7.214;2023-11-21T13:13:20;41.80;;;21.55;;
30398;SDS011;17195;50.838;7.214;2023-11-21T13:18:15;42.17;;;21.42;;
30398;SDS011;17195;50.838;7.214;2023-11-21T13:20:41;43.00;;;22.48;;
30398;SDS011;17195;50.838;7.214;2023-11-21T13:23:08;42.58;;;21.33;;
30398;SDS011;17195;50.838;7.214;2023-11-21T13:25:37;38.90;;;19.98;;
30398;SDS011;17195;50.838;7.214;2023-11-21T13:28:04;38.42;;;20.58;;
30398;SDS011;17195;50.838;7.214;2023-11-21T13:30:30;38.28;;;19.63;;
30398;SDS011;17195;50.838;7.214;2023-11-21T13:33:02;40.67;;;20.73;;
30398;SDS011;17195;50.838;7.214;2023-11-21T13:35:34;40.17;;;20.60;;
30398;SDS011;17195;50.838;7.214;2023-11-21T13:38:12;34.17;;;18.90;;
30398;SDS011;17195;50.838;7.214;2023-11-21T13:40:48;32.85;;;18.02;;
30398;SDS011;17195;50.838;7.214;2023-11-21T13:43:18;40.05;;;19.25;;
30398;SDS011;17195;50.838;7.214;2023-11-21T13:45:46;35.05;;;19.00;;
30398;SDS011;17195;50.838;7.214;2023-11-21T13:48:13;39.55;;;18.77;;
30398;SDS011;17195;50.838;7.214;2023-11-21T13:50:42;39.30;;;19.30;;
30398;SDS011;17195;50.838;7.214;2023-11-21T13:53:23;36.90;;;18.97;;
30398;SDS011;17195;50.838;7.214;2023-11-21T13:55:50;36.90;;;19.58;;
30398;SDS011;17195;50.838;7.214;2023-11-21T13:58:19;35.35;;;18.48;;
30398;SDS011;17195;50.838;7.214;2023-11-21T14:00:49;38.78;;;18.95;;
30398;SDS011;17195;50.838;7.214;2023-11-21T14:03:22;37.28;;;18.45;;
30398;SDS011;17195;50.838;7.214;2023-11-21T14:05:49;39.15;;;19.08;;
30398;SDS011;17195;50.838;7.214;2023-11-21T14:08:20;43.67;;;19.42;;
30398;SDS011;17195;50.838;7.214;2023-11-21T14:10:48;41.70;;;20.05;;
30398;SDS011;17195;50.838;7.214;2023-11-21T14:13:20;53.08;;;20.08;;
30398;SDS011;17195;50.838;7.214;2023-11-21T14:15:48;43.72;;;20.95;;
30398;SDS011;17195;50.838;7.214;2023-11-21T14:18:19;38.03;;;18.27;;
30398;SDS011;17195;50.838;7.214;2023-11-21T14:20:52;39.78;;;19.85;;
30398;SDS011;17195;50.838;7.214;2023-11-21T14:23:17;43.65;;;19.90;;
30398;SDS011;17195;50.838;7.214;2023-11-21T14:25:43;39.15;;;18.90;;
30398;SDS011;17195;50.838;7.214;2023-11-21T14:28:09;36.70;;;19.27;;
30398;SDS011;17195;50.838;7.214;2023-11-21T14:30:37;39.80;;;20.13;;
30398;SDS011;17195;50.838;7.214;2023-11-21T14:33:04;41.67;;;18.52;;
30398;SDS011;17195;50.838;7.214;2023-11-21T14:35:33;38.20;;;18.55;;
30398;SDS011;17195;50.838;7.214;2023-11-21T14:37:59;42.47;;;19.30;;
30398;SDS011;17195;50.838;7.214;2023-11-21T14:40:25;39.13;;;17.25;;
30398;SDS011;17195;50.838;7.214;2023-11-21T14:42:56;42.50;;;19.05;;
30398;SDS011;17195;50.838;7.214;2023-11-21T14:45:22;38.72;;;18.73;;